createdAt,value
2023-07-12T00:00:05.014Z,46.90
2023-07-12T00:01:05.132Z,46.90
2023-07-12T00:02:05.364Z,47.09
2023-07-12T00:03:05.616Z,47.29
2023-07-12T00:04:05.746Z,47.19
2023-07-12T00:05:05.870Z,47.19
2023-07-12T00:06:06.018Z,47.29
2023-07-12T00:07:06.211Z,47.29
2023-07-12T00:08:06.415Z,47.09
2023-07-12T00:09:06.605Z,47.29
2023-07-12T00:10:06.770Z,47.19
2023-07-12T00:11:07.170Z,47.22
2023-07-12T00:12:07.206Z,47.31
2023-07-12T00:13:07.370Z,47.41
2023-07-12T00:14:07.537Z,47.61
2023-07-12T00:15:07.737Z,47.51
2023-07-12T00:16:07.944Z,47.71
2023-07-12T00:17:08.141Z,47.41
2023-07-12T00:18:08.426Z,47.61
2023-07-12T00:19:08.640Z,47.51
2023-07-12T00:20:08.702Z,47.71
2023-07-12T00:21:09.155Z,47.71
2023-07-12T00:22:09.067Z,47.61
2023-07-12T00:23:09.271Z,47.41
2023-07-12T00:24:09.428Z,47.61
2023-07-12T00:25:09.622Z,47.51
2023-07-12T00:26:09.811Z,47.41
2023-07-12T00:28:10.215Z,47.71
2023-07-12T00:29:10.422Z,47.41
2023-07-12T00:30:10.560Z,47.61
2023-07-12T00:31:11.122Z,47.51
2023-07-12T00:32:10.949Z,47.61
2023-07-12T00:33:11.132Z,47.71
2023-07-12T00:34:11.321Z,47.91
2023-07-12T00:35:11.486Z,47.80
2023-07-12T00:36:11.740Z,47.80
2023-07-12T00:37:11.866Z,47.80
2023-07-12T00:38:12.031Z,47.80
2023-07-12T00:39:12.206Z,48.00
2023-07-12T00:40:12.510Z,47.51
2023-07-12T00:41:12.575Z,47.53
2023-07-12T00:42:12.735Z,47.83
2023-07-12T00:43:12.952Z,47.44
2023-07-12T00:44:13.125Z,47.73
2023-07-12T00:45:13.343Z,47.83
2023-07-12T00:46:13.500Z,47.73
2023-07-12T00:47:13.673Z,47.83
2023-07-12T00:48:13.862Z,48.03
2023-07-12T00:49:14.015Z,47.92
2023-07-12T00:50:14.268Z,48.13
2023-07-12T00:51:14.414Z,48.22
2023-07-12T00:52:14.609Z,48.22
2023-07-12T00:53:14.816Z,48.42
2023-07-12T00:54:15.024Z,48.22
2023-07-12T00:55:15.165Z,48.32
2023-07-12T00:56:15.349Z,48.13
2023-07-12T00:57:15.538Z,48.42
2023-07-12T00:58:15.748Z,48.03
2023-07-12T00:59:15.922Z,48.42
2023-07-12T01:00:16.097Z,48.32
2023-07-12T01:01:16.332Z,48.13
2023-07-12T01:02:16.491Z,48.42
2023-07-12T01:03:16.771Z,48.52
2023-07-12T01:04:16.833Z,48.61
2023-07-12T01:05:17.104Z,48.52
2023-07-12T01:06:17.238Z,48.42
2023-07-12T01:07:17.392Z,48.42
2023-07-12T01:08:17.615Z,48.42
2023-07-12T01:09:17.804Z,48.42
2023-07-12T01:10:17.988Z,48.61
2023-07-12T01:11:18.194Z,48.52
2023-07-12T01:12:18.353Z,48.52
2023-07-12T01:13:18.609Z,48.52
2023-07-12T01:14:18.753Z,48.42
2023-07-12T01:15:18.940Z,48.52
2023-07-12T01:16:19.226Z,48.32
2023-07-12T01:17:19.319Z,48.61
2023-07-12T01:18:19.613Z,48.61
2023-07-12T01:19:19.686Z,48.71
2023-07-12T01:20:19.872Z,48.52
2023-07-12T01:21:20.038Z,48.61
2023-07-12T01:22:20.254Z,48.61
2023-07-12T01:23:20.422Z,48.82
2023-07-12T01:24:20.600Z,48.71
2023-07-12T01:25:20.834Z,48.71
2023-07-12T01:26:20.977Z,48.82
2023-07-12T01:27:21.200Z,49.01
2023-07-12T01:28:21.323Z,49.01
2023-07-12T01:29:21.472Z,49.01
2023-07-12T01:30:21.625Z,49.11
2023-07-12T01:31:21.863Z,49.11
2023-07-12T01:32:22.053Z,48.91
2023-07-12T01:33:22.174Z,48.71
2023-07-12T01:34:22.395Z,49.01
2023-07-12T01:35:22.538Z,48.91
2023-07-12T01:36:22.741Z,48.91
2023-07-12T01:37:22.943Z,48.91
2023-07-12T01:38:23.109Z,49.01
2023-07-12T01:39:23.313Z,49.11
2023-07-12T01:40:23.511Z,49.23
2023-07-12T01:41:23.695Z,49.23
2023-07-12T01:42:23.896Z,49.11
2023-07-12T01:43:24.052Z,49.04
2023-07-12T01:44:24.267Z,49.04
2023-07-12T01:45:24.471Z,49.23
2023-07-12T01:46:24.650Z,49.23
2023-07-12T01:47:24.871Z,49.23
2023-07-12T01:48:25.015Z,49.23
2023-07-12T01:49:25.202Z,49.23
2023-07-12T01:50:25.387Z,49.23
2023-07-12T01:51:25.543Z,49.23
2023-07-12T01:52:25.747Z,49.13
2023-07-12T01:53:25.920Z,49.23
2023-07-12T01:54:26.101Z,49.13
2023-07-12T01:55:26.266Z,49.13
2023-07-12T01:56:26.463Z,49.23
2023-07-12T01:57:26.654Z,49.23
2023-07-12T01:58:26.860Z,49.33
2023-07-12T01:59:27.031Z,49.33
2023-07-12T02:00:27.237Z,49.33
2023-07-12T02:01:27.470Z,49.23
2023-07-12T02:02:27.698Z,49.23
2023-07-12T02:03:27.922Z,49.52
2023-07-12T02:04:27.983Z,49.43
2023-07-12T02:05:28.144Z,49.33
2023-07-12T02:06:28.365Z,49.23
2023-07-12T02:07:28.564Z,49.33
2023-07-12T02:08:28.706Z,49.33
2023-07-12T02:09:28.869Z,49.43
2023-07-12T02:10:29.068Z,49.43
2023-07-12T02:11:29.247Z,49.52
2023-07-12T02:12:29.441Z,49.43
2023-07-12T02:13:29.578Z,49.43
2023-07-12T02:14:29.800Z,49.43
2023-07-12T02:15:29.966Z,49.43
2023-07-12T02:16:30.230Z,49.23
2023-07-12T02:17:30.358Z,49.52
2023-07-12T02:18:30.540Z,49.52
2023-07-12T02:19:30.683Z,49.43
2023-07-12T02:20:30.894Z,49.52
2023-07-12T02:21:31.023Z,49.62
2023-07-12T02:22:31.219Z,49.62
2023-07-12T02:23:31.390Z,49.62
2023-07-12T02:24:31.554Z,49.52
2023-07-12T02:25:31.763Z,49.62
2023-07-12T02:26:31.937Z,49.62
2023-07-12T02:27:32.131Z,49.62
2023-07-12T02:28:32.290Z,49.65
2023-07-12T02:29:32.489Z,49.85
2023-07-12T02:30:32.699Z,49.75
2023-07-12T02:31:33.023Z,49.75
2023-07-12T02:32:33.074Z,49.65
2023-07-12T02:33:33.233Z,49.55
2023-07-12T02:34:33.419Z,49.65
2023-07-12T02:35:33.574Z,49.75
2023-07-12T02:36:33.743Z,49.85
2023-07-12T02:37:33.953Z,49.75
2023-07-12T02:38:34.128Z,49.65
2023-07-12T02:39:34.335Z,49.75
2023-07-12T02:40:34.506Z,49.75
2023-07-12T02:41:34.692Z,49.85
2023-07-12T02:42:34.881Z,49.75
2023-07-12T02:43:35.056Z,49.85
2023-07-12T02:44:35.270Z,49.85
2023-07-12T02:45:35.449Z,49.75
2023-07-12T02:46:35.635Z,49.75
2023-07-12T02:47:35.835Z,49.65
2023-07-12T02:48:35.973Z,49.75
2023-07-12T02:49:36.164Z,49.55
2023-07-12T02:50:36.379Z,49.65
2023-07-12T02:51:36.594Z,49.75
2023-07-12T02:52:36.748Z,49.75
2023-07-12T02:53:38.988Z,49.65
2023-07-12T02:54:37.144Z,49.75
2023-07-12T02:55:37.299Z,49.85
2023-07-12T02:56:37.495Z,49.95
2023-07-12T02:57:37.679Z,49.87
2023-07-12T02:58:38.001Z,50.07
2023-07-12T02:59:38.097Z,50.16
2023-07-12T03:00:38.284Z,50.26
2023-07-12T03:01:38.506Z,50.16
2023-07-12T03:02:38.670Z,50.26
2023-07-12T03:03:38.827Z,50.16
2023-07-12T03:04:39.027Z,50.16
2023-07-12T03:05:39.220Z,50.26
2023-07-12T03:06:39.354Z,50.36
2023-07-12T03:07:39.591Z,50.56
2023-07-12T03:08:39.806Z,50.46
2023-07-12T03:09:39.934Z,50.36
2023-07-12T03:10:40.092Z,50.46
2023-07-12T03:11:40.275Z,50.46
2023-07-12T03:12:40.496Z,50.46
2023-07-12T03:13:40.655Z,50.46
2023-07-12T03:14:40.828Z,50.56
2023-07-12T03:15:41.025Z,50.56
2023-07-12T03:16:41.261Z,50.46
2023-07-12T03:17:41.414Z,50.56
2023-07-12T03:18:41.684Z,50.56
2023-07-12T03:19:41.740Z,50.56
2023-07-12T03:20:41.896Z,50.76
2023-07-12T03:21:42.102Z,50.76
2023-07-12T03:22:42.242Z,50.76
2023-07-12T03:23:42.445Z,50.66
2023-07-12T03:24:42.602Z,50.76
2023-07-12T03:25:42.780Z,50.85
2023-07-12T03:26:42.977Z,50.85
2023-07-12T03:27:43.108Z,50.85
2023-07-12T03:28:43.299Z,50.88
2023-07-12T03:29:43.496Z,50.85
2023-07-12T03:30:43.687Z,50.98
2023-07-12T03:31:43.894Z,51.07
2023-07-12T03:32:44.059Z,51.28
2023-07-12T03:33:44.223Z,51.37
2023-07-12T03:34:44.401Z,51.28
2023-07-12T03:35:44.597Z,51.28
2023-07-12T03:36:44.793Z,51.28
2023-07-12T03:37:44.940Z,51.37
2023-07-12T03:38:45.114Z,51.47
2023-07-12T03:39:45.353Z,51.57
2023-07-12T03:40:45.507Z,51.37
2023-07-12T03:41:45.719Z,51.47
2023-07-12T03:42:45.874Z,51.47
2023-07-12T03:43:46.025Z,51.57
2023-07-12T03:44:46.203Z,51.57
2023-07-12T03:45:46.391Z,51.57
2023-07-12T03:46:46.694Z,51.77
2023-07-12T03:47:46.867Z,51.57
2023-07-12T03:48:46.994Z,51.67
2023-07-12T03:49:47.166Z,51.77
2023-07-12T03:50:47.326Z,51.77
2023-07-12T03:51:47.473Z,51.77
2023-07-12T03:52:47.676Z,51.87
2023-07-12T03:53:47.881Z,51.87
2023-07-12T03:54:48.052Z,51.87
2023-07-12T03:55:48.198Z,51.97
2023-07-12T03:56:48.397Z,52.06
2023-07-12T03:57:48.568Z,51.97
2023-07-12T03:58:48.765Z,51.87
2023-07-12T03:59:48.949Z,51.87
2023-07-12T04:00:49.172Z,51.87
2023-07-12T04:01:49.306Z,51.97
2023-07-12T04:02:49.602Z,51.97
2023-07-12T04:03:49.716Z,51.87
2023-07-12T04:04:49.865Z,52.06
2023-07-12T04:05:50.070Z,51.97
2023-07-12T04:06:50.200Z,52.04
2023-07-12T04:07:50.401Z,51.94
2023-07-12T04:08:50.636Z,52.06
2023-07-12T04:09:50.813Z,52.04
2023-07-12T04:10:50.980Z,52.14
2023-07-12T04:11:51.184Z,52.23
2023-07-12T04:12:51.357Z,52.33
2023-07-12T04:13:51.541Z,52.33
2023-07-12T04:14:51.744Z,52.43
2023-07-12T04:15:51.902Z,52.23
2023-07-12T04:16:52.106Z,52.43
2023-07-12T04:17:52.298Z,52.04
2023-07-12T04:18:52.434Z,52.14
2023-07-12T04:19:52.589Z,52.14
2023-07-12T04:20:52.798Z,52.14
2023-07-12T04:21:52.987Z,52.14
2023-07-12T04:22:53.171Z,52.04
2023-07-12T04:23:53.338Z,52.43
2023-07-12T04:24:53.547Z,52.33
2023-07-12T04:25:53.752Z,51.94
2023-07-12T04:26:53.917Z,52.23
2023-07-12T04:27:54.092Z,52.23
2023-07-12T04:28:54.282Z,52.23
2023-07-12T04:29:54.449Z,52.23
2023-07-12T04:30:54.669Z,52.33
2023-07-12T04:31:54.822Z,52.43
2023-07-12T04:32:55.037Z,52.63
2023-07-12T04:33:55.182Z,52.33
2023-07-12T04:34:55.396Z,52.33
2023-07-12T04:35:55.570Z,52.33
2023-07-12T04:36:55.714Z,52.23
2023-07-12T04:37:55.901Z,52.33
2023-07-12T04:38:56.097Z,52.31
2023-07-12T04:39:56.270Z,52.33
2023-07-12T04:40:56.485Z,52.53
2023-07-12T04:41:56.627Z,52.63
2023-07-12T04:42:56.801Z,52.63
2023-07-12T04:43:56.986Z,52.73
2023-07-12T04:44:57.188Z,52.73
2023-07-12T04:45:57.417Z,52.73
2023-07-12T04:46:57.652Z,52.83
2023-07-12T04:47:57.758Z,52.92
2023-07-12T04:48:57.958Z,53.12
2023-07-12T04:49:58.142Z,53.32
2023-07-12T04:50:58.339Z,53.32
2023-07-12T04:51:58.551Z,53.32
2023-07-12T04:52:58.717Z,53.32
2023-07-12T04:53:58.902Z,53.32
2023-07-12T04:54:59.123Z,53.32
2023-07-12T04:55:59.277Z,53.42
2023-07-12T04:56:59.496Z,53.42
2023-07-12T04:57:59.641Z,53.52
2023-07-12T04:58:59.854Z,53.49
2023-07-12T05:00:00.054Z,53.52
2023-07-12T05:01:00.316Z,53.59
2023-07-12T05:02:00.430Z,53.59
2023-07-12T05:03:00.701Z,53.59
2023-07-12T05:04:00.832Z,53.69
2023-07-12T05:05:00.984Z,53.78
2023-07-12T05:06:13.479Z,53.78
2023-07-12T05:07:02.382Z,53.88
2023-07-12T05:08:01.545Z,53.99
2023-07-12T05:09:01.736Z,53.99
2023-07-12T05:10:01.951Z,54.18
2023-07-12T05:11:02.137Z,54.28
2023-07-12T05:12:02.316Z,54.28
2023-07-12T05:13:02.492Z,54.38
2023-07-12T05:14:02.650Z,54.47
2023-07-12T05:15:04.015Z,54.47
2023-07-12T05:16:03.023Z,54.47
2023-07-12T05:17:03.262Z,54.57
2023-07-12T05:18:03.439Z,54.77
2023-07-12T05:19:03.624Z,54.68
2023-07-12T05:20:03.823Z,54.77
2023-07-12T05:21:03.945Z,54.77
2023-07-12T05:22:04.134Z,54.84
2023-07-12T05:23:04.313Z,54.94
2023-07-12T05:24:04.460Z,54.94
2023-07-12T05:25:04.672Z,55.04
2023-07-12T05:26:04.843Z,54.94
2023-07-12T05:27:05.062Z,55.14
2023-07-12T05:28:05.244Z,55.14
2023-07-12T05:29:05.558Z,55.24
2023-07-12T05:30:05.622Z,55.33
2023-07-12T05:31:05.862Z,55.43
2023-07-12T05:32:06.009Z,55.43
2023-07-12T05:33:06.232Z,55.43
2023-07-12T05:34:06.401Z,55.53
2023-07-12T05:35:06.541Z,55.63
2023-07-12T05:36:06.800Z,55.60
2023-07-12T05:37:06.957Z,55.60
2023-07-12T05:38:07.082Z,55.60
2023-07-12T05:39:07.308Z,55.60
2023-07-12T05:40:07.508Z,55.60
2023-07-12T05:41:07.668Z,55.80
2023-07-12T05:42:07.831Z,55.60
2023-07-12T05:43:08.003Z,55.70
2023-07-12T05:44:08.204Z,55.80
2023-07-12T05:45:08.407Z,55.80
2023-07-12T05:46:08.619Z,55.60
2023-07-12T05:47:08.803Z,55.70
2023-07-12T05:48:08.936Z,55.70
2023-07-12T05:49:09.143Z,55.80
2023-07-12T05:50:09.344Z,55.80
2023-07-12T05:51:10.050Z,55.87
2023-07-12T05:52:09.701Z,55.77
2023-07-12T05:53:09.926Z,55.87
2023-07-12T05:54:10.083Z,55.77
2023-07-12T05:55:10.316Z,55.77
2023-07-12T05:56:10.479Z,55.87
2023-07-12T05:57:10.640Z,55.77
2023-07-12T05:58:10.841Z,55.77
2023-07-12T05:59:11.050Z,55.77
2023-07-12T06:00:11.224Z,55.77
2023-07-12T06:01:11.974Z,55.68
2023-07-12T06:02:11.712Z,55.68
2023-07-12T06:03:11.869Z,55.77
2023-07-12T06:04:12.033Z,55.18
2023-07-12T06:05:12.154Z,55.55
2023-07-12T06:06:12.351Z,55.68
2023-07-12T06:07:12.546Z,55.85
2023-07-12T06:08:12.712Z,55.75
2023-07-12T06:09:12.949Z,55.75
2023-07-12T06:10:13.089Z,55.85
2023-07-12T06:11:13.455Z,55.65
2023-07-12T06:12:13.455Z,55.65
2023-07-12T06:13:13.607Z,55.65
2023-07-12T06:14:13.819Z,55.85
2023-07-12T06:15:14.069Z,55.75
2023-07-12T06:16:14.245Z,55.85
2023-07-12T06:17:14.473Z,56.43
2023-07-12T06:18:14.725Z,56.24
2023-07-12T06:19:14.714Z,55.91
2023-07-12T06:20:14.910Z,55.72
2023-07-12T06:21:15.102Z,55.23
2023-07-12T06:22:15.265Z,55.03
2023-07-12T06:23:15.497Z,55.33
2023-07-12T06:24:15.626Z,55.13
2023-07-12T06:25:15.804Z,55.43
2023-07-12T06:26:16.067Z,55.62
2023-07-12T06:27:16.168Z,55.40
2023-07-12T06:28:16.399Z,55.30
2023-07-12T06:29:16.566Z,55.40
2023-07-12T06:30:16.773Z,55.10
2023-07-12T06:31:16.967Z,54.81
2023-07-12T06:32:17.077Z,54.61
2023-07-12T06:33:17.281Z,53.83
2023-07-12T06:34:17.437Z,53.92
2023-07-12T06:35:17.644Z,54.61
2023-07-12T06:36:17.824Z,54.71
2023-07-12T06:37:17.994Z,54.71
2023-07-12T06:38:18.211Z,54.58
2023-07-12T06:39:18.375Z,54.49
2023-07-12T06:40:18.546Z,53.80
2023-07-12T06:41:18.725Z,54.49
2023-07-12T06:42:18.943Z,53.80
2023-07-12T06:43:19.128Z,54.39
2023-07-12T06:44:19.244Z,53.67
2023-07-12T06:45:19.434Z,56.13
2023-07-12T06:46:19.692Z,55.05
2023-07-12T06:47:19.808Z,56.03
2023-07-12T06:48:20.029Z,56.23
2023-07-12T06:49:20.197Z,55.44
2023-07-12T06:50:20.342Z,56.23
2023-07-12T06:51:20.529Z,55.71
2023-07-12T06:52:20.714Z,55.41
2023-07-12T06:53:20.917Z,55.32
2023-07-12T06:54:21.099Z,55.12
2023-07-12T06:55:21.278Z,55.41
2023-07-12T06:56:21.474Z,56.20
2023-07-12T06:57:21.666Z,55.91
2023-07-12T06:58:21.887Z,55.71
2023-07-12T06:59:22.039Z,55.41
2023-07-12T07:00:22.244Z,55.41
2023-07-12T07:01:22.458Z,55.12
2023-07-12T07:02:22.620Z,55.12
2023-07-12T07:03:22.800Z,55.02
2023-07-12T07:04:23.040Z,55.02
2023-07-12T07:05:23.140Z,54.93
2023-07-12T07:06:23.359Z,54.83
2023-07-12T07:07:23.486Z,54.53
2023-07-12T07:08:23.795Z,54.44
2023-07-12T07:09:23.848Z,54.44
2023-07-12T07:10:24.034Z,54.70
2023-07-12T07:11:24.285Z,54.70
2023-07-12T07:12:24.440Z,54.31
2023-07-12T07:13:24.620Z,54.14
2023-07-12T07:14:24.766Z,53.94
2023-07-12T07:15:24.961Z,54.02
2023-07-12T07:16:25.203Z,53.92
2023-07-12T07:17:25.347Z,54.04
2023-07-12T07:18:25.705Z,54.24
2023-07-12T07:19:25.706Z,54.11
2023-07-12T07:20:25.925Z,54.21
2023-07-12T07:21:26.064Z,54.70
2023-07-12T07:22:26.262Z,54.80
2023-07-12T07:23:26.444Z,53.92
2023-07-12T07:24:26.616Z,53.82
2023-07-12T07:25:26.827Z,53.82
2023-07-12T07:26:26.976Z,53.43
2023-07-12T07:27:27.173Z,53.33
2023-07-12T07:28:27.354Z,53.33
2023-07-12T07:29:27.560Z,53.92
2023-07-12T07:30:27.737Z,53.82
2023-07-12T07:31:27.942Z,53.33
2023-07-12T07:32:28.165Z,53.20
2023-07-12T07:33:28.318Z,53.50
2023-07-12T07:34:28.457Z,52.91
2023-07-12T07:35:28.646Z,52.72
2023-07-12T07:36:28.856Z,52.91
2023-07-12T07:37:29.031Z,53.59
2023-07-12T07:38:29.232Z,53.08
2023-07-12T07:39:29.393Z,52.89
2023-07-12T07:40:29.559Z,52.10
2023-07-12T07:41:29.745Z,52.89
2023-07-12T07:42:29.944Z,53.38
2023-07-12T07:43:30.122Z,52.40
2023-07-12T07:44:30.280Z,52.69
2023-07-12T07:45:30.444Z,52.00
2023-07-12T07:46:30.685Z,51.29
2023-07-12T07:47:30.862Z,51.68
2023-07-12T07:48:31.036Z,51.29
2023-07-12T07:49:31.202Z,51.20
2023-07-12T07:50:31.417Z,51.68
2023-07-12T07:51:31.576Z,51.00
2023-07-12T07:52:31.825Z,51.00
2023-07-12T07:53:32.036Z,50.61
2023-07-12T07:54:32.145Z,51.49
2023-07-12T07:55:32.329Z,51.88
2023-07-12T07:56:32.543Z,51.29
2023-07-12T07:57:32.672Z,51.10
2023-07-12T07:58:32.884Z,50.51
2023-07-12T07:59:33.057Z,50.42
2023-07-12T08:00:33.266Z,50.12
2023-07-12T08:01:33.454Z,51.39
2023-07-12T08:02:33.747Z,50.90
2023-07-12T08:03:34.032Z,50.39
2023-07-12T08:04:34.084Z,50.39
2023-07-12T08:05:34.149Z,49.99
2023-07-12T08:06:34.358Z,49.90
2023-07-12T08:07:34.494Z,49.80
2023-07-12T08:08:34.716Z,50.59
2023-07-12T08:09:34.934Z,49.80
2023-07-12T08:10:35.108Z,50.10
2023-07-12T08:11:36.785Z,49.99
2023-07-12T08:12:35.425Z,49.70
2023-07-12T08:13:35.614Z,49.80
2023-07-12T08:14:35.811Z,49.70
2023-07-12T08:15:36.010Z,50.29
2023-07-12T08:16:36.200Z,50.49
2023-07-12T08:17:36.372Z,49.99
2023-07-12T08:18:36.636Z,49.99
2023-07-12T08:19:36.725Z,50.29
2023-07-12T08:20:36.965Z,49.60
2023-07-12T08:21:37.106Z,49.51
2023-07-12T08:22:37.303Z,49.90
2023-07-12T08:23:37.490Z,49.60
2023-07-12T08:24:37.669Z,50.20
2023-07-12T08:25:37.862Z,49.90
2023-07-12T08:26:38.043Z,50.98
2023-07-12T08:27:38.251Z,49.80
2023-07-12T08:28:38.391Z,49.90
2023-07-12T08:29:38.564Z,50.29
2023-07-12T08:30:38.764Z,51.17
2023-07-12T08:31:38.950Z,50.29
2023-07-12T08:32:39.183Z,51.34
2023-07-12T08:33:39.337Z,50.95
2023-07-12T08:34:39.478Z,50.95
2023-07-12T08:35:48.097Z,51.34
2023-07-12T08:36:40.816Z,51.44
2023-07-12T08:37:39.991Z,50.17
2023-07-12T08:38:40.164Z,51.05
2023-07-12T08:39:40.380Z,49.87
2023-07-12T08:40:40.579Z,50.46
2023-07-12T08:41:40.739Z,49.97
2023-07-12T08:42:40.895Z,49.77
2023-07-12T08:43:41.074Z,49.77
2023-07-12T08:44:41.244Z,50.66
2023-07-12T08:45:41.502Z,50.37
2023-07-12T08:46:41.602Z,50.56
2023-07-12T08:47:41.799Z,49.87
2023-07-12T08:48:41.968Z,49.77
2023-07-12T08:49:42.131Z,49.87
2023-07-12T08:50:42.329Z,50.07
2023-07-12T08:51:44.763Z,50.07
2023-07-12T08:52:42.728Z,50.27
2023-07-12T08:53:42.908Z,50.56
2023-07-12T08:54:43.098Z,50.95
2023-07-12T08:55:43.291Z,50.46
2023-07-12T08:56:43.457Z,50.66
2023-07-12T08:57:43.608Z,50.17
2023-07-12T08:58:43.777Z,50.17
2023-07-12T08:59:43.980Z,50.46
2023-07-12T09:00:44.195Z,50.76
2023-07-12T09:01:44.447Z,51.15
2023-07-12T09:02:44.527Z,50.76
2023-07-12T09:03:44.708Z,50.76
2023-07-12T09:04:44.910Z,50.27
2023-07-12T09:05:45.117Z,50.37
2023-07-12T09:06:45.229Z,49.97
2023-07-12T09:07:45.413Z,49.87
2023-07-12T09:08:45.583Z,50.07
2023-07-12T09:09:45.779Z,50.85
2023-07-12T09:10:45.984Z,50.05
2023-07-12T09:11:46.203Z,50.24
2023-07-12T09:12:46.311Z,50.63
2023-07-12T09:13:46.494Z,50.54
2023-07-12T09:14:48.754Z,50.15
2023-07-12T09:15:46.840Z,50.44
2023-07-12T09:16:47.062Z,50.34
2023-07-12T09:17:47.256Z,50.54
2023-07-12T09:18:47.443Z,50.83
2023-07-12T09:19:47.600Z,51.81
2023-07-12T09:20:47.759Z,51.61
2023-07-12T09:21:48.438Z,50.73
2023-07-12T09:22:48.119Z,50.34
2023-07-12T09:23:48.319Z,49.73
2023-07-12T09:24:48.502Z,51.29
2023-07-12T09:25:48.714Z,50.90
2023-07-12T09:26:48.881Z,50.42
2023-07-12T09:27:49.056Z,50.02
2023-07-12T09:28:49.233Z,49.73
2023-07-12T09:29:49.405Z,49.33
2023-07-12T09:30:49.586Z,50.78
2023-07-12T09:31:49.816Z,51.37
2023-07-12T09:32:50.031Z,51.56
2023-07-12T09:33:50.125Z,51.27
2023-07-12T09:34:50.303Z,50.39
2023-07-12T09:35:50.502Z,50.68
2023-07-12T09:36:50.698Z,50.20
2023-07-12T09:37:50.884Z,50.59
2023-07-12T09:38:51.033Z,50.29
2023-07-12T09:39:51.226Z,51.37
2023-07-12T09:40:51.415Z,51.95
2023-07-12T09:41:52.030Z,50.56
2023-07-12T09:42:51.815Z,50.95
2023-07-12T09:43:51.987Z,51.43
2023-07-12T09:44:52.128Z,49.29
2023-07-12T09:46:09.352Z,49.29
2023-07-12T09:46:53.580Z,49.19
2023-07-12T09:47:52.738Z,50.26
2023-07-12T09:48:52.884Z,49.17
2023-07-12T09:49:53.067Z,49.37
2023-07-12T09:50:53.220Z,48.49
2023-07-12T09:51:53.439Z,48.58
2023-07-12T09:52:53.613Z,49.27
2023-07-12T09:53:53.775Z,51.48
2023-07-12T09:54:53.967Z,49.73
2023-07-12T09:55:54.169Z,48.56
2023-07-12T09:56:54.321Z,50.70
2023-07-12T09:57:54.552Z,49.63
2023-07-12T09:58:54.694Z,48.36
2023-07-12T09:59:54.884Z,49.83
2023-07-12T10:00:55.081Z,48.44
2023-07-12T10:01:55.355Z,47.66
2023-07-12T10:02:55.505Z,48.83
2023-07-12T10:03:58.123Z,47.27
2023-07-12T10:04:55.844Z,47.27
2023-07-12T10:05:56.019Z,47.56
2023-07-12T10:06:56.192Z,47.63
2023-07-12T10:07:56.344Z,46.86
2023-07-12T10:08:56.554Z,46.37
2023-07-12T10:09:56.711Z,47.25
2023-07-12T10:10:56.880Z,48.12
2023-07-12T10:11:57.066Z,49.39
2023-07-12T10:12:57.273Z,49.76
2023-07-12T10:13:57.454Z,46.25
2023-07-12T10:14:57.690Z,46.15
2023-07-12T10:15:57.785Z,45.95
2023-07-12T10:16:58.010Z,45.86
2023-07-12T10:17:58.303Z,45.57
2023-07-12T10:18:58.557Z,44.86
2023-07-12T10:19:58.559Z,44.76
2023-07-12T10:20:58.734Z,44.48
2023-07-12T10:21:58.907Z,45.94
2023-07-12T10:22:59.100Z,44.57
2023-07-12T10:23:59.246Z,44.38
2023-07-12T10:24:59.437Z,46.20
2023-07-12T10:25:59.626Z,48.34
2023-07-12T10:26:59.798Z,47.56
2023-07-12T10:28:00.009Z,44.35
2023-07-12T10:29:00.179Z,44.94
2023-07-12T10:30:00.344Z,43.67
2023-07-12T10:31:00.578Z,43.16
2023-07-12T10:32:00.762Z,45.31
2023-07-12T10:33:00.990Z,45.60
2023-07-12T10:34:01.136Z,47.15
2023-07-12T10:35:01.308Z,45.50
2023-07-12T10:36:01.488Z,45.57
2023-07-12T10:37:01.686Z,44.12
2023-07-12T10:38:01.866Z,46.45
2023-07-12T10:39:02.052Z,46.55
2023-07-12T10:40:02.243Z,43.51
2023-07-12T10:41:02.402Z,43.61
2023-07-12T10:42:02.587Z,46.72
2023-07-12T10:43:02.830Z,45.17
2023-07-12T10:44:02.936Z,42.25
2023-07-12T10:45:03.130Z,43.51
2023-07-12T10:46:03.368Z,45.45
2023-07-12T10:47:03.558Z,44.78
2023-07-12T10:48:03.762Z,44.48
2023-07-12T10:49:03.886Z,43.20
2023-07-12T10:50:04.110Z,41.94
2023-07-12T10:51:04.264Z,42.43
2023-07-12T10:52:04.460Z,44.17
2023-07-12T10:53:04.718Z,45.62
2023-07-12T10:54:04.817Z,45.70
2023-07-12T10:55:05.180Z,44.34
2023-07-12T10:56:05.180Z,44.64
2023-07-12T10:57:05.354Z,45.80
2023-07-12T10:58:05.544Z,43.84
2023-07-12T10:59:05.724Z,41.41
2023-07-12T11:00:05.977Z,42.19
2023-07-12T11:01:06.197Z,41.89
2023-07-12T11:02:06.377Z,43.95
2023-07-12T11:03:06.603Z,45.21
2023-07-12T11:04:06.675Z,45.31
2023-07-12T11:05:06.837Z,45.12
2023-07-12T11:06:07.041Z,43.66
2023-07-12T11:07:07.205Z,44.81
2023-07-12T11:08:07.359Z,43.64
2023-07-12T11:09:07.555Z,44.13
2023-07-12T11:10:07.756Z,44.81
2023-07-12T11:11:08.189Z,44.03
2023-07-12T11:12:08.101Z,45.10
2023-07-12T11:13:08.282Z,44.32
2023-07-12T11:14:08.439Z,43.84
2023-07-12T11:15:08.662Z,43.35
2023-07-12T11:16:08.843Z,43.45
2023-07-12T11:17:09.180Z,43.84
2023-07-12T11:18:09.284Z,41.51
2023-07-12T11:19:09.418Z,43.45
2023-07-12T11:20:09.589Z,43.35
2023-07-12T11:21:09.930Z,43.84
2023-07-12T11:22:09.947Z,43.72
2023-07-12T11:23:10.084Z,42.85
2023-07-12T11:24:10.316Z,44.10
2023-07-12T11:25:10.448Z,44.32
2023-07-12T11:26:10.626Z,42.96
2023-07-12T11:27:10.837Z,42.55
2023-07-12T11:28:11.023Z,43.33
2023-07-12T11:29:11.243Z,43.06
2023-07-12T11:30:11.359Z,41.41
2023-07-12T11:31:11.908Z,42.77
2023-07-12T11:32:11.734Z,42.85
2023-07-12T11:33:11.971Z,42.36
2023-07-12T11:34:12.128Z,43.23
2023-07-12T11:35:12.291Z,43.82
2023-07-12T11:36:12.489Z,43.04
2023-07-12T11:37:12.674Z,43.52
2023-07-12T11:38:12.846Z,43.50
2023-07-12T11:39:13.025Z,42.63
2023-07-12T11:40:13.218Z,41.37
2023-07-12T11:41:13.433Z,40.31
2023-07-12T11:42:13.585Z,41.49
2023-07-12T11:43:13.765Z,42.26
2023-07-12T11:44:13.967Z,42.55
2023-07-12T11:45:15.126Z,41.88
2023-07-12T11:46:14.448Z,40.81
2023-07-12T11:47:14.525Z,41.39
2023-07-12T11:48:14.784Z,42.46
2023-07-12T11:49:14.873Z,42.05
2023-07-12T11:50:15.088Z,41.86
2023-07-12T11:51:15.277Z,42.63
2023-07-12T11:52:15.440Z,43.50
2023-07-12T11:53:15.632Z,43.31
2023-07-12T11:54:15.808Z,43.41
2023-07-12T11:55:16.020Z,43.41
2023-07-12T11:56:16.162Z,43.41
2023-07-12T11:57:16.341Z,40.40
2023-07-12T11:58:16.532Z,42.72
2023-07-12T11:59:16.764Z,40.31
2023-07-12T12:00:16.906Z,40.11
2023-07-12T12:01:17.044Z,39.53
2023-07-12T12:02:17.234Z,39.43
2023-07-12T12:03:17.560Z,39.82
2023-07-12T12:04:17.695Z,39.24
2023-07-12T12:05:17.923Z,40.31
2023-07-12T12:06:17.991Z,40.21
2023-07-12T12:07:18.173Z,40.79
2023-07-12T12:08:18.344Z,40.69
2023-07-12T12:09:18.582Z,40.69
2023-07-12T12:10:18.717Z,41.55
2023-07-12T12:11:18.884Z,39.22
2023-07-12T12:12:19.134Z,41.14
2023-07-12T12:13:19.376Z,39.39
2023-07-12T12:14:19.486Z,39.29
2023-07-12T12:15:19.629Z,39.97
2023-07-12T12:16:19.835Z,39.29
2023-07-12T12:17:20.051Z,39.59
2023-07-12T12:18:20.507Z,40.65
2023-07-12T12:19:20.790Z,40.75
2023-07-12T12:20:21.183Z,40.15
2023-07-12T12:21:21.312Z,40.25
2023-07-12T12:22:21.162Z,39.18
2023-07-12T12:23:21.129Z,40.61
2023-07-12T12:24:21.330Z,41.09
2023-07-12T12:25:21.534Z,40.13
2023-07-12T12:26:23.398Z,41.27
2023-07-12T12:27:21.864Z,38.56
2023-07-12T12:28:22.048Z,40.01
2023-07-12T12:29:22.286Z,41.46
2023-07-12T12:30:22.445Z,40.78
2023-07-12T12:31:22.710Z,40.38
2023-07-12T12:32:22.995Z,38.93
2023-07-12T12:33:22.981Z,39.62
2023-07-12T12:34:23.169Z,36.82
2023-07-12T12:35:23.464Z,39.24
2023-07-12T12:36:23.531Z,39.53
2023-07-12T12:37:23.751Z,38.37
2023-07-12T12:38:23.908Z,38.76
2023-07-12T12:39:24.098Z,39.62
2023-07-12T12:40:24.315Z,39.82
2023-07-12T12:41:24.460Z,36.24
2023-07-12T12:42:24.648Z,39.04
2023-07-12T12:43:24.845Z,36.44
2023-07-12T12:44:25.042Z,36.24
2023-07-12T12:45:25.218Z,36.07
2023-07-12T12:46:26.308Z,36.44
2023-07-12T12:47:25.706Z,37.88
2023-07-12T12:49:38.420Z,37.02
2023-07-12T12:53:33.655Z,38.95
2023-07-12T12:54:28.069Z,38.08
2023-07-12T12:59:45.420Z,34.70
2023-07-12T13:04:50.191Z,34.60
2023-07-12T13:04:50.459Z,34.42
2023-07-12T13:04:54.824Z,33.73
2023-07-12T13:05:33.178Z,35.16